createdAt,value
2022-12-25T00:00:29.260Z,6.30
2022-12-25T00:02:56.510Z,6.30
2022-12-25T00:05:23.965Z,6.30
2022-12-25T00:07:51.536Z,6.30
2022-12-25T00:10:19.008Z,6.40
2022-12-25T00:12:46.195Z,6.30
2022-12-25T00:15:13.338Z,6.30
2022-12-25T00:17:40.472Z,6.40
2022-12-25T00:20:08.646Z,6.30
2022-12-25T00:22:35.862Z,6.30
2022-12-25T00:25:03.128Z,6.30
2022-12-25T00:27:33.865Z,6.40
2022-12-25T00:30:01.767Z,6.40
2022-12-25T00:32:28.913Z,6.40
2022-12-25T00:34:56.119Z,6.40
2022-12-25T00:37:23.293Z,6.40
2022-12-25T00:39:51.582Z,6.40
2022-12-25T00:42:18.852Z,6.40
2022-12-25T00:44:49.750Z,6.40
2022-12-25T00:47:17.350Z,6.40
2022-12-25T00:49:44.824Z,6.40
2022-12-25T00:52:12.053Z,6.40
2022-12-25T00:54:39.483Z,6.40
2022-12-25T00:57:06.605Z,6.40
2022-12-25T00:59:34.504Z,6.40
2022-12-25T01:02:21.902Z,6.40
2022-12-25T01:04:57.324Z,6.40
2022-12-25T01:07:25.585Z,6.40
2022-12-25T01:10:11.678Z,6.40
2022-12-25T01:12:40.978Z,6.40
2022-12-25T01:15:09.316Z,6.40
2022-12-25T01:17:36.501Z,6.40
2022-12-25T01:20:04.247Z,6.40
2022-12-25T01:22:31.784Z,6.40
2022-12-25T01:24:58.892Z,6.40
2022-12-25T01:27:26.106Z,6.40
2022-12-25T01:29:53.240Z,6.40
2022-12-25T01:32:20.372Z,6.40
2022-12-25T01:34:52.094Z,6.40
2022-12-25T01:37:24.927Z,6.40
2022-12-25T01:39:52.198Z,6.50
2022-12-25T01:42:20.923Z,6.50
2022-12-25T01:44:48.562Z,6.50
2022-12-25T01:47:16.429Z,6.50
2022-12-25T01:49:46.385Z,6.40
2022-12-25T01:52:23.925Z,6.40
2022-12-25T01:55:00.452Z,6.50
2022-12-25T01:57:32.793Z,6.50
2022-12-25T01:59:59.951Z,6.50
2022-12-25T02:02:28.150Z,6.40
2022-12-25T02:05:10.199Z,6.50
2022-12-25T02:07:37.932Z,6.50
2022-12-25T02:10:05.552Z,6.50
2022-12-25T02:12:34.089Z,6.50
2022-12-25T02:15:13.920Z,6.50
2022-12-25T02:18:54.236Z,6.50
2022-12-25T02:21:55.460Z,6.50
2022-12-25T02:24:50.116Z,6.50
2022-12-25T02:28:07.418Z,6.40
2022-12-25T02:30:42.895Z,6.50
2022-12-25T02:33:33.801Z,6.30
2022-12-25T02:36:04.708Z,6.40
2022-12-25T02:38:38.179Z,6.40
2022-12-25T02:41:10.190Z,6.40
2022-12-25T02:43:59.586Z,6.40
2022-12-25T02:46:45.718Z,6.40
2022-12-25T02:49:38.351Z,6.30
2022-12-25T02:52:29.793Z,6.30
2022-12-25T02:55:40.615Z,6.30
2022-12-25T02:58:30.767Z,6.30
2022-12-25T03:01:38.456Z,6.20
2022-12-25T03:04:27.505Z,6.20
2022-12-25T03:07:05.166Z,6.20
2022-12-25T03:10:00.686Z,6.20
2022-12-25T03:13:19.926Z,6.20
2022-12-25T03:16:06.194Z,6.20
2022-12-25T03:18:33.709Z,6.10
2022-12-25T03:21:19.301Z,6.10
2022-12-25T03:24:09.541Z,6.10
2022-12-25T03:26:55.213Z,6.10
2022-12-25T03:29:52.704Z,6.10
2022-12-25T03:32:25.954Z,6.10
2022-12-25T03:35:24.097Z,6.00
2022-12-25T03:38:34.635Z,6.10
2022-12-25T03:41:50.787Z,6.10
2022-12-25T03:45:27.884Z,6.00
2022-12-25T03:48:13.314Z,6.00
2022-12-25T03:51:13.192Z,5.90
2022-12-25T03:54:03.496Z,6.00
2022-12-25T03:56:49.387Z,6.00
2022-12-25T03:59:38.492Z,6.00
2022-12-25T04:02:24.596Z,5.90
2022-12-25T04:05:10.781Z,5.90
2022-12-25T04:07:56.578Z,5.90
2022-12-25T04:10:42.456Z,5.90
2022-12-25T04:13:28.554Z,5.90
2022-12-25T04:16:14.519Z,5.80
2022-12-25T04:19:00.550Z,5.80
2022-12-25T04:21:46.685Z,5.80
2022-12-25T04:24:32.483Z,5.80
2022-12-25T04:27:18.372Z,5.70
2022-12-25T04:30:04.040Z,5.70
2022-12-25T04:32:50.079Z,5.70
2022-12-25T04:35:36.104Z,5.70
2022-12-25T04:38:03.268Z,5.60
2022-12-25T04:40:30.397Z,5.60
2022-12-25T04:42:57.561Z,5.60
2022-12-25T04:45:25.106Z,5.60
2022-12-25T04:47:52.269Z,5.60
2022-12-25T04:50:19.698Z,5.60
2022-12-25T04:52:46.986Z,5.50
2022-12-25T04:55:14.125Z,5.60
2022-12-25T04:57:41.342Z,5.50
2022-12-25T05:00:09.460Z,5.50
2022-12-25T05:02:36.729Z,5.40
2022-12-25T05:05:04.242Z,5.40
2022-12-25T05:07:31.377Z,5.40
2022-12-25T05:09:58.503Z,5.30
2022-12-25T05:12:25.651Z,5.30
2022-12-25T05:14:52.755Z,5.20
2022-12-25T05:17:19.876Z,5.20
2022-12-25T05:19:47.012Z,5.20
2022-12-25T05:22:14.171Z,5.20
2022-12-25T05:24:41.300Z,5.10
2022-12-25T05:27:08.416Z,5.10
2022-12-25T05:29:35.562Z,5.10
2022-12-25T05:32:02.741Z,5.00
2022-12-25T05:34:29.869Z,5.00
2022-12-25T05:36:57.138Z,5.00
2022-12-25T05:39:24.467Z,4.90
2022-12-25T05:41:51.716Z,4.90
2022-12-25T05:44:18.837Z,4.90
2022-12-25T05:46:46.059Z,4.80
2022-12-25T05:49:13.324Z,4.80
2022-12-25T05:51:40.473Z,4.80
2022-12-25T05:54:07.700Z,4.70
2022-12-25T05:56:34.963Z,4.70
2022-12-25T05:59:02.135Z,4.60
2022-12-25T06:01:29.445Z,4.60
2022-12-25T06:03:57.494Z,4.60
2022-12-25T06:06:24.717Z,4.50
2022-12-25T06:08:55.099Z,4.50
2022-12-25T06:11:22.257Z,4.50
2022-12-25T06:13:51.562Z,4.40
2022-12-25T06:16:18.908Z,4.40
2022-12-25T06:18:48.555Z,4.40
2022-12-25T06:21:15.919Z,4.30
2022-12-25T06:23:43.176Z,4.40
2022-12-25T06:26:13.442Z,4.30
2022-12-25T06:28:40.921Z,4.30
2022-12-25T06:31:17.344Z,4.30
2022-12-25T06:33:44.819Z,4.30
2022-12-25T06:36:22.797Z,4.30
2022-12-25T06:38:50.093Z,4.30
2022-12-25T06:41:22.876Z,4.20
2022-12-25T06:43:51.376Z,4.20
2022-12-25T06:46:18.650Z,4.20
2022-12-25T06:48:49.912Z,4.10
2022-12-25T06:51:22.439Z,4.10
2022-12-25T06:53:50.210Z,4.10
2022-12-25T06:56:20.669Z,4.10
2022-12-25T06:58:50.525Z,4.10
2022-12-25T07:01:25.828Z,4.10
2022-12-25T07:03:58.628Z,4.10
2022-12-25T07:06:25.955Z,4.10
2022-12-25T07:08:53.069Z,4.10
2022-12-25T07:11:20.478Z,4.10
2022-12-25T07:13:47.743Z,4.10
2022-12-25T07:16:14.963Z,4.10
2022-12-25T07:18:42.362Z,4.10
2022-12-25T07:21:12.862Z,4.10
2022-12-25T07:23:40.366Z,4.20
2022-12-25T07:26:07.628Z,4.20
2022-12-25T07:28:34.771Z,4.30
2022-12-25T07:31:15.957Z,4.30
2022-12-25T07:33:43.396Z,4.40
2022-12-25T07:36:12.894Z,4.50
2022-12-25T07:38:42.218Z,4.60
2022-12-25T07:41:13.174Z,4.60
2022-12-25T07:43:40.532Z,4.70
2022-12-25T07:46:07.857Z,4.70
2022-12-25T07:48:35.710Z,4.70
2022-12-25T07:51:05.711Z,4.70
2022-12-25T07:53:33.003Z,4.80
2022-12-25T07:56:02.452Z,4.80
2022-12-25T07:58:29.989Z,4.90
2022-12-25T08:01:04.144Z,4.90
2022-12-25T08:03:32.351Z,5.00
2022-12-25T08:06:04.593Z,5.10
2022-12-25T08:08:31.728Z,5.10
2022-12-25T08:10:58.913Z,5.20
2022-12-25T08:13:26.318Z,5.30
2022-12-25T08:16:00.979Z,5.40
2022-12-25T08:18:32.211Z,5.40
2022-12-25T08:21:07.505Z,5.50
2022-12-25T08:23:35.741Z,5.50
2022-12-25T08:26:05.481Z,5.60
2022-12-25T08:28:33.336Z,5.60
2022-12-25T08:31:05.350Z,5.60
2022-12-25T08:33:32.512Z,5.70
2022-12-25T08:36:12.759Z,5.70
2022-12-25T08:38:41.297Z,5.70
2022-12-25T08:41:09.016Z,5.70
2022-12-25T08:43:39.483Z,5.70
2022-12-25T08:46:33.385Z,5.80
2022-12-25T08:49:09.457Z,5.80
2022-12-25T08:51:53.432Z,5.80
2022-12-25T08:59:40.084Z,6.00
2022-12-25T09:02:10.644Z,6.00
2022-12-25T09:04:51.447Z,6.10
2022-12-25T09:07:21.247Z,6.20
2022-12-25T09:09:52.069Z,6.20
2022-12-25T09:12:19.182Z,6.20
2022-12-25T09:14:47.454Z,6.30
2022-12-25T09:17:14.598Z,6.40
2022-12-25T09:19:47.038Z,6.30
2022-12-25T09:22:14.201Z,6.40
2022-12-25T09:24:42.715Z,6.40
2022-12-25T09:27:13.025Z,6.40
2022-12-25T09:29:43.024Z,6.50
2022-12-25T09:32:13.081Z,6.60
2022-12-25T09:34:40.218Z,6.60
2022-12-25T09:37:11.041Z,6.70
2022-12-25T09:39:43.869Z,6.70
2022-12-25T09:42:32.365Z,6.70
2022-12-25T09:45:32.926Z,6.80
2022-12-25T09:48:00.114Z,6.80
2022-12-25T09:51:16.900Z,6.80
2022-12-25T09:54:20.421Z,6.80
2022-12-25T09:56:47.612Z,6.80
2022-12-25T09:59:24.806Z,7.00
2022-12-25T10:02:22.590Z,7.10
2022-12-25T10:04:58.602Z,7.10
2022-12-25T10:07:43.778Z,7.20
2022-12-25T10:10:46.373Z,7.20
2022-12-25T10:13:47.473Z,7.20
2022-12-25T10:16:33.306Z,7.20
2022-12-25T10:19:30.653Z,7.30
2022-12-25T10:22:02.271Z,7.20
2022-12-25T10:24:47.351Z,7.20
2022-12-25T10:27:30.207Z,7.20
2022-12-25T10:29:57.418Z,7.20
2022-12-25T10:32:27.058Z,7.20
2022-12-25T10:34:54.215Z,7.20
2022-12-25T10:37:21.957Z,7.20
2022-12-25T10:39:49.104Z,7.20
2022-12-25T10:42:28.463Z,7.20
2022-12-25T10:45:06.340Z,7.20
2022-12-25T10:47:38.107Z,7.10
2022-12-25T10:50:24.916Z,7.10
2022-12-25T10:53:05.271Z,7.10
2022-12-25T10:55:33.019Z,7.00
2022-12-25T10:58:02.044Z,7.00
2022-12-25T11:00:31.858Z,7.10
2022-12-25T11:02:59.649Z,7.10
2022-12-25T11:05:32.319Z,7.10
2022-12-25T11:08:01.253Z,7.10
2022-12-25T11:10:44.189Z,7.10
2022-12-25T11:13:27.132Z,7.10
2022-12-25T11:16:14.016Z,7.10
2022-12-25T11:18:52.529Z,7.10
2022-12-25T11:21:34.529Z,7.10
2022-12-25T11:24:06.940Z,7.10
2022-12-25T11:27:23.571Z,7.00
2022-12-25T11:29:54.996Z,7.00
2022-12-25T11:32:30.789Z,6.90
2022-12-25T11:34:58.149Z,6.90
2022-12-25T11:37:51.589Z,6.80
2022-12-25T11:40:25.517Z,6.80
2022-12-25T11:43:11.220Z,6.80
2022-12-25T11:45:41.613Z,6.80
2022-12-25T11:48:16.157Z,6.80
2022-12-25T11:50:55.697Z,6.80
2022-12-25T11:53:30.020Z,6.70
2022-12-25T11:55:59.851Z,6.70
2022-12-25T11:58:48.782Z,6.70
2022-12-25T12:01:39.028Z,6.80
2022-12-25T12:04:29.207Z,6.80
2022-12-25T12:07:24.487Z,6.80
2022-12-25T12:10:09.484Z,6.80
2022-12-25T12:12:50.721Z,6.80
2022-12-25T12:15:39.780Z,6.70
2022-12-25T12:18:28.582Z,6.80
2022-12-25T12:21:16.584Z,6.80
2022-12-25T12:24:20.277Z,6.80
2022-12-25T12:26:47.833Z,6.90
2022-12-25T12:29:27.452Z,6.80
2022-12-25T12:31:55.200Z,6.90
2022-12-25T12:34:25.675Z,6.90
2022-12-25T12:37:04.045Z,6.90
2022-12-25T12:39:37.605Z,6.80
2022-12-25T12:42:18.376Z,6.80
2022-12-25T12:44:45.705Z,6.80
2022-12-25T12:47:38.459Z,6.80
2022-12-25T12:50:06.585Z,6.90
2022-12-25T12:52:36.641Z,6.80
2022-12-25T12:55:09.764Z,6.90
2022-12-25T12:57:39.961Z,6.90
2022-12-25T13:00:14.061Z,6.90
2022-12-25T13:03:08.907Z,6.90
2022-12-25T13:05:58.053Z,6.90
2022-12-25T13:09:06.082Z,6.90
2022-12-25T13:11:38.815Z,6.90
2022-12-25T13:14:06.085Z,6.80
2022-12-25T13:16:44.612Z,6.80
2022-12-25T13:19:23.656Z,6.80
2022-12-25T13:22:03.268Z,6.80
2022-12-25T13:24:35.442Z,6.80
2022-12-25T13:27:25.588Z,6.80
2022-12-25T13:29:52.770Z,6.80
2022-12-25T13:32:28.883Z,6.80
2022-12-25T13:34:56.104Z,6.90
2022-12-25T13:37:26.600Z,6.80
2022-12-25T13:40:04.122Z,6.80
2022-12-25T13:42:33.728Z,6.80
2022-12-25T13:45:09.711Z,6.70
2022-12-25T13:47:39.300Z,6.70
2022-12-25T13:50:27.134Z,6.70
2022-12-25T13:52:57.356Z,6.70
2022-12-25T13:55:26.133Z,6.70
2022-12-25T13:58:03.941Z,6.60
2022-12-25T14:00:45.318Z,6.60
2022-12-25T14:03:34.712Z,6.60
2022-12-25T14:06:14.765Z,6.50
2022-12-25T14:08:41.981Z,6.40
2022-12-25T14:11:09.554Z,6.30
2022-12-25T14:13:40.198Z,6.30
2022-12-25T14:16:07.978Z,6.20
2022-12-25T14:18:35.764Z,6.10
2022-12-25T14:21:14.311Z,6.10
2022-12-25T14:23:47.185Z,6.10
2022-12-25T14:26:38.208Z,6.00
2022-12-25T14:29:05.338Z,5.90
2022-12-25T14:31:32.626Z,5.80
2022-12-25T14:34:00.860Z,5.80
2022-12-25T14:36:28.061Z,5.80
2022-12-25T14:39:02.787Z,5.80
2022-12-25T14:41:37.645Z,5.80
2022-12-25T14:44:36.839Z,5.80
2022-12-25T14:47:10.607Z,5.80
2022-12-25T14:49:38.007Z,5.60
2022-12-25T14:52:21.451Z,5.60
2022-12-25T14:55:18.605Z,5.50
2022-12-25T14:57:53.019Z,5.60
2022-12-25T15:00:38.675Z,5.60
2022-12-25T15:03:09.192Z,5.60
2022-12-25T15:05:38.308Z,5.50
2022-12-25T15:08:12.433Z,5.50
2022-12-25T15:13:27.894Z,5.40
2022-12-25T15:16:01.647Z,5.40
2022-12-25T15:18:34.222Z,5.40
2022-12-25T15:21:01.395Z,5.30
2022-12-25T15:23:28.574Z,5.30
2022-12-25T15:25:55.713Z,5.20
2022-12-25T15:28:22.868Z,5.20
2022-12-25T15:30:50.285Z,5.20
2022-12-25T15:33:18.636Z,5.20
2022-12-25T15:35:45.847Z,5.20
2022-12-25T15:38:13.596Z,5.20
2022-12-25T15:40:41.184Z,5.20
2022-12-25T15:46:05.091Z,5.30
2022-12-25T15:48:32.289Z,5.30
2022-12-25T15:50:59.443Z,5.20
2022-12-25T15:53:27.019Z,5.20
2022-12-25T15:55:54.259Z,5.20
2022-12-25T15:58:21.391Z,5.20
2022-12-25T16:00:48.601Z,5.20
2022-12-25T16:03:15.737Z,5.20
2022-12-25T16:05:42.911Z,5.30
2022-12-25T16:08:10.127Z,5.30
2022-12-25T16:10:39.185Z,5.30
2022-12-25T16:13:07.755Z,5.30
2022-12-25T16:15:34.947Z,5.20
2022-12-25T16:18:02.271Z,5.20
2022-12-25T16:20:29.414Z,5.20
2022-12-25T16:22:56.564Z,5.20
2022-12-25T16:25:24.139Z,5.20
2022-12-25T16:27:51.303Z,5.20
2022-12-25T16:30:18.767Z,5.20
2022-12-25T16:32:49.873Z,5.20
2022-12-25T16:35:17.912Z,5.20
2022-12-25T16:37:45.124Z,5.10
2022-12-25T16:40:12.349Z,5.10
2022-12-25T16:42:39.602Z,5.10
2022-12-25T16:45:07.574Z,5.20
2022-12-25T16:47:34.896Z,5.20
2022-12-25T16:50:03.565Z,5.20
2022-12-25T16:52:34.772Z,5.20
2022-12-25T16:55:02.474Z,5.20
2022-12-25T16:57:32.095Z,5.20
2022-12-25T17:00:00.292Z,5.20
2022-12-25T17:02:27.638Z,5.20
2022-12-25T17:04:54.899Z,5.20
2022-12-25T17:07:23.131Z,5.20
2022-12-25T17:09:50.378Z,5.20
2022-12-25T17:12:17.650Z,5.20
2022-12-25T17:14:45.917Z,5.20
2022-12-25T17:17:13.283Z,5.30
2022-12-25T17:19:40.429Z,5.30
2022-12-25T17:22:07.643Z,5.30
2022-12-25T17:24:38.406Z,5.30
2022-12-25T17:27:09.367Z,5.40
2022-12-25T17:29:39.051Z,5.40
2022-12-25T17:32:09.021Z,5.40
2022-12-25T17:34:36.815Z,5.40
2022-12-25T17:37:04.636Z,5.40
2022-12-25T17:39:31.981Z,5.50
2022-12-25T17:41:59.232Z,5.50
2022-12-25T17:44:27.323Z,5.50
2022-12-25T17:46:54.561Z,5.50
2022-12-25T17:49:22.131Z,5.50
2022-12-25T17:51:49.284Z,5.50
2022-12-25T17:54:16.655Z,5.40
2022-12-25T17:56:43.917Z,5.30
2022-12-25T17:59:17.978Z,5.30
2022-12-25T18:01:49.417Z,5.30
2022-12-25T18:04:16.799Z,5.40
2022-12-25T18:06:43.975Z,5.40
2022-12-25T18:09:11.649Z,5.40
2022-12-25T18:11:40.903Z,5.40
2022-12-25T18:14:11.434Z,5.40
2022-12-25T18:16:39.827Z,5.40
2022-12-25T18:19:07.012Z,5.40
2022-12-25T18:21:35.254Z,5.40
2022-12-25T18:24:12.657Z,5.40
2022-12-25T18:26:39.924Z,5.40
2022-12-25T18:29:07.108Z,5.30
2022-12-25T18:31:34.569Z,5.40
2022-12-25T18:34:01.956Z,5.50
2022-12-25T18:36:29.731Z,5.40
2022-12-25T18:38:57.582Z,5.50
2022-12-25T18:41:24.946Z,5.50
2022-12-25T18:43:55.593Z,5.50
2022-12-25T18:46:25.447Z,5.60
2022-12-25T18:48:57.472Z,5.60
2022-12-25T18:51:24.876Z,5.70
2022-12-25T18:53:52.092Z,5.60
2022-12-25T18:56:20.173Z,5.70
2022-12-25T18:58:47.660Z,5.70
2022-12-25T19:01:19.636Z,5.70
2022-12-25T19:03:49.030Z,5.70
2022-12-25T19:06:18.992Z,5.70
2022-12-25T19:08:46.200Z,5.80
2022-12-25T19:11:13.495Z,5.80
2022-12-25T19:13:40.730Z,5.80
2022-12-25T19:16:08.206Z,5.80
2022-12-25T19:18:35.468Z,5.80
2022-12-25T19:21:04.183Z,5.80
2022-12-25T19:23:31.473Z,5.90
2022-12-25T19:25:58.651Z,5.90
2022-12-25T19:28:25.808Z,5.90
2022-12-25T19:31:00.529Z,5.90
2022-12-25T19:33:27.818Z,6.00
2022-12-25T19:36:11.088Z,6.00
2022-12-25T19:38:40.807Z,6.10
2022-12-25T19:41:12.958Z,6.10
2022-12-25T19:43:41.795Z,6.10
2022-12-25T19:46:19.532Z,6.20
2022-12-25T19:48:46.858Z,6.20
2022-12-25T19:51:37.128Z,6.20
2022-12-25T19:54:05.066Z,6.30
2022-12-25T19:57:01.252Z,6.30
2022-12-25T19:59:28.576Z,6.40
2022-12-25T20:01:55.935Z,6.30
2022-12-25T20:04:23.252Z,6.40
2022-12-25T20:06:50.511Z,6.40
2022-12-25T20:09:21.403Z,6.40
2022-12-25T20:11:48.933Z,6.40
2022-12-25T20:14:17.618Z,6.50
2022-12-25T20:16:45.132Z,6.50
2022-12-25T20:19:12.887Z,6.60
2022-12-25T20:21:40.336Z,6.60
2022-12-25T20:24:10.142Z,6.60
2022-12-25T20:26:38.026Z,6.60
2022-12-25T20:29:05.438Z,6.60
2022-12-25T20:31:34.054Z,6.60
2022-12-25T20:34:08.269Z,6.70
2022-12-25T20:36:37.911Z,6.70
2022-12-25T20:39:10.020Z,6.70
2022-12-25T20:41:38.231Z,6.70
2022-12-25T20:44:06.792Z,6.70
2022-12-25T20:46:34.417Z,6.70
2022-12-25T20:49:02.351Z,6.70
2022-12-25T20:51:29.531Z,6.70
2022-12-25T20:53:56.875Z,6.70
2022-12-25T20:56:25.991Z,6.70
2022-12-25T20:58:59.109Z,6.80
2022-12-25T21:01:27.626Z,6.80
2022-12-25T21:03:58.583Z,6.80
2022-12-25T21:06:28.921Z,6.80
2022-12-25T21:08:56.208Z,6.90
2022-12-25T21:11:23.466Z,6.90
2022-12-25T21:13:50.827Z,7.00
2022-12-25T21:16:24.423Z,6.90
2022-12-25T21:18:53.244Z,6.90
2022-12-25T21:21:20.632Z,7.00
2022-12-25T21:23:47.852Z,7.00
2022-12-25T21:26:19.125Z,7.00
2022-12-25T21:28:51.850Z,7.00
2022-12-25T21:31:19.644Z,7.00
2022-12-25T21:33:53.347Z,7.00
2022-12-25T21:36:29.225Z,7.00
2022-12-25T21:39:07.239Z,7.10
2022-12-25T21:41:35.746Z,7.10
2022-12-25T21:44:03.048Z,7.10
2022-12-25T21:46:30.384Z,7.10
2022-12-25T21:49:00.906Z,7.10
2022-12-25T21:51:51.986Z,7.10
2022-12-25T21:54:26.351Z,7.20
2022-12-25T21:56:53.580Z,7.20
2022-12-25T21:59:21.591Z,7.10
2022-12-25T22:01:49.986Z,7.20
2022-12-25T22:04:18.313Z,7.20
2022-12-25T22:07:04.329Z,7.20
2022-12-25T22:09:31.756Z,7.20
2022-12-25T22:12:18.064Z,7.20
2022-12-25T22:14:56.884Z,7.20
2022-12-25T22:17:44.971Z,7.20
2022-12-25T22:20:21.875Z,7.20
2022-12-25T22:22:49.312Z,7.20
2022-12-25T22:25:17.170Z,7.20
2022-12-25T22:27:45.018Z,7.20
2022-12-25T22:30:15.352Z,7.20
2022-12-25T22:32:43.037Z,7.20
2022-12-25T22:35:10.487Z,7.20
2022-12-25T22:37:38.283Z,7.20
2022-12-25T22:40:06.886Z,7.20
2022-12-25T22:42:34.174Z,7.20
2022-12-25T22:45:01.540Z,7.20
2022-12-25T22:47:28.770Z,7.20
2022-12-25T22:49:55.984Z,7.30
2022-12-25T22:52:23.209Z,7.30
2022-12-25T22:54:50.386Z,7.20
2022-12-25T22:57:17.542Z,7.20
2022-12-25T22:59:44.732Z,7.20
2022-12-25T23:02:12.024Z,7.10
2022-12-25T23:04:39.312Z,7.10
2022-12-25T23:07:06.654Z,7.10
2022-12-25T23:09:33.900Z,7.00
2022-12-25T23:12:01.063Z,7.00
2022-12-25T23:14:40.769Z,7.00
2022-12-25T23:17:30.593Z,6.90
2022-12-25T23:20:18.110Z,6.90
2022-12-25T23:23:04.666Z,6.90
2022-12-25T23:25:50.785Z,6.80
2022-12-25T23:28:37.893Z,6.80
2022-12-25T23:31:05.283Z,6.80
2022-12-25T23:33:35.338Z,6.80
2022-12-25T23:36:02.608Z,6.80
2022-12-25T23:38:29.856Z,6.80
2022-12-25T23:40:57.079Z,6.80
2022-12-25T23:43:24.710Z,6.90
2022-12-25T23:45:51.911Z,6.90
2022-12-25T23:48:19.155Z,7.00
2022-12-25T23:50:46.287Z,7.00
2022-12-25T23:53:13.486Z,7.00
2022-12-25T23:55:42.747Z,7.10
2022-12-25T23:58:10.093Z,7.20
